sensor_id;sensor_type;location;lat;lon;timestamp;P1;durP1;ratioP1;P2;durP2;ratioP2
7605;SDS011;3844;53.360;9.738;2022-07-06T00:01:59;5.80;;;1.58;;
7605;SDS011;3844;53.360;9.738;2022-07-06T00:04:24;4.72;;;1.20;;
7605;SDS011;3844;53.360;9.738;2022-07-06T00:06:50;4.55;;;1.48;;
7605;SDS011;3844;53.360;9.738;2022-07-06T00:09:16;5.65;;;1.50;;
7605;SDS011;3844;53.360;9.738;2022-07-06T00:11:41;5.95;;;1.60;;
7605;SDS011;3844;53.360;9.738;2022-07-06T00:14:07;4.95;;;1.50;;
7605;SDS011;3844;53.360;9.738;2022-07-06T00:16:33;5.47;;;1.50;;
7605;SDS011;3844;53.360;9.738;2022-07-06T00:18:59;6.72;;;1.50;;
7605;SDS011;3844;53.360;9.738;2022-07-06T00:21:25;4.40;;;1.27;;
7605;SDS011;3844;53.360;9.738;2022-07-06T00:23:51;7.95;;;1.40;;
7605;SDS011;3844;53.360;9.738;2022-07-06T00:26:17;6.40;;;1.58;;
7605;SDS011;3844;53.360;9.738;2022-07-06T00:28:44;5.50;;;1.38;;
7605;SDS011;3844;53.360;9.738;2022-07-06T00:31:10;7.07;;;1.60;;
7605;SDS011;3844;53.360;9.738;2022-07-06T00:33:35;4.95;;;1.40;;
7605;SDS011;3844;53.360;9.738;2022-07-06T00:36:01;5.03;;;1.25;;
7605;SDS011;3844;53.360;9.738;2022-07-06T00:38:27;4.80;;;1.40;;
7605;SDS011;3844;53.360;9.738;2022-07-06T00:40:53;7.30;;;1.75;;
7605;SDS011;3844;53.360;9.738;2022-07-06T00:43:19;4.53;;;1.40;;
7605;SDS011;3844;53.360;9.738;2022-07-06T00:45:45;5.53;;;1.42;;
7605;SDS011;3844;53.360;9.738;2022-07-06T00:48:10;6.75;;;1.42;;
7605;SDS011;3844;53.360;9.738;2022-07-06T00:50:37;5.97;;;1.75;;
7605;SDS011;3844;53.360;9.738;2022-07-06T00:53:04;5.47;;;1.50;;
7605;SDS011;3844;53.360;9.738;2022-07-06T00:55:32;6.28;;;1.40;;
7605;SDS011;3844;53.360;9.738;2022-07-06T00:58:01;4.22;;;1.38;;
7605;SDS011;3844;53.360;9.738;2022-07-06T01:00:28;5.82;;;1.40;;
7605;SDS011;3844;53.360;9.738;2022-07-06T01:02:54;4.35;;;1.27;;
7605;SDS011;3844;53.360;9.738;2022-07-06T01:05:20;5.25;;;1.70;;
7605;SDS011;3844;53.360;9.738;2022-07-06T01:07:47;5.07;;;1.50;;
7605;SDS011;3844;53.360;9.738;2022-07-06T01:10:16;6.07;;;1.42;;
7605;SDS011;3844;53.360;9.738;2022-07-06T01:12:44;4.90;;;1.40;;
7605;SDS011;3844;53.360;9.738;2022-07-06T01:15:14;5.03;;;1.50;;
7605;SDS011;3844;53.360;9.738;2022-07-06T01:17:42;4.57;;;1.30;;
7605;SDS011;3844;53.360;9.738;2022-07-06T01:20:20;7.38;;;1.30;;
7605;SDS011;3844;53.360;9.738;2022-07-06T01:22:48;7.32;;;1.60;;
7605;SDS011;3844;53.360;9.738;2022-07-06T01:25:14;6.38;;;1.70;;
7605;SDS011;3844;53.360;9.738;2022-07-06T01:27:41;9.25;;;1.73;;
7605;SDS011;3844;53.360;9.738;2022-07-06T01:30:08;5.63;;;1.50;;
7605;SDS011;3844;53.360;9.738;2022-07-06T01:32:36;5.35;;;1.60;;
7605;SDS011;3844;53.360;9.738;2022-07-06T01:35:07;5.80;;;1.55;;
7605;SDS011;3844;53.360;9.738;2022-07-06T01:37:35;8.57;;;1.60;;
7605;SDS011;3844;53.360;9.738;2022-07-06T01:40:02;7.68;;;1.73;;
7605;SDS011;3844;53.360;9.738;2022-07-06T01:42:29;4.72;;;1.50;;
7605;SDS011;3844;53.360;9.738;2022-07-06T01:44:55;7.70;;;1.80;;
7605;SDS011;3844;53.360;9.738;2022-07-06T01:47:21;6.70;;;1.60;;
7605;SDS011;3844;53.360;9.738;2022-07-06T01:49:47;5.15;;;1.50;;
7605;SDS011;3844;53.360;9.738;2022-07-06T01:52:13;5.82;;;1.50;;
7605;SDS011;3844;53.360;9.738;2022-07-06T01:54:39;6.10;;;1.40;;
7605;SDS011;3844;53.360;9.738;2022-07-06T01:57:04;4.15;;;1.42;;
7605;SDS011;3844;53.360;9.738;2022-07-06T01:59:30;8.48;;;1.77;;
7605;SDS011;3844;53.360;9.738;2022-07-06T02:01:56;5.97;;;1.58;;
7605;SDS011;3844;53.360;9.738;2022-07-06T02:04:22;7.63;;;1.90;;
7605;SDS011;3844;53.360;9.738;2022-07-06T02:06:48;5.53;;;1.77;;
7605;SDS011;3844;53.360;9.738;2022-07-06T02:09:14;6.03;;;1.70;;
7605;SDS011;3844;53.360;9.738;2022-07-06T02:11:41;6.45;;;1.90;;
7605;SDS011;3844;53.360;9.738;2022-07-06T02:14:07;6.28;;;1.80;;
7605;SDS011;3844;53.360;9.738;2022-07-06T02:16:33;6.75;;;1.70;;
7605;SDS011;3844;53.360;9.738;2022-07-06T02:18:59;4.90;;;1.60;;
7605;SDS011;3844;53.360;9.738;2022-07-06T02:21:25;7.53;;;1.73;;
7605;SDS011;3844;53.360;9.738;2022-07-06T02:23:51;6.78;;;1.60;;
7605;SDS011;3844;53.360;9.738;2022-07-06T02:26:17;5.93;;;1.52;;
7605;SDS011;3844;53.360;9.738;2022-07-06T02:28:43;5.30;;;1.50;;
7605;SDS011;3844;53.360;9.738;2022-07-06T02:31:10;4.07;;;1.50;;
7605;SDS011;3844;53.360;9.738;2022-07-06T02:33:38;5.78;;;1.50;;
7605;SDS011;3844;53.360;9.738;2022-07-06T02:36:04;6.55;;;1.50;;
7605;SDS011;3844;53.360;9.738;2022-07-06T02:38:30;7.93;;;1.60;;
7605;SDS011;3844;53.360;9.738;2022-07-06T02:40:55;7.45;;;1.60;;
7605;SDS011;3844;53.360;9.738;2022-07-06T02:43:21;5.53;;;1.50;;
7605;SDS011;3844;53.360;9.738;2022-07-06T02:45:47;4.07;;;1.42;;
7605;SDS011;3844;53.360;9.738;2022-07-06T02:48:13;6.38;;;1.50;;
7605;SDS011;3844;53.360;9.738;2022-07-06T02:50:39;7.40;;;1.45;;
7605;SDS011;3844;53.360;9.738;2022-07-06T02:53:04;5.15;;;1.45;;
7605;SDS011;3844;53.360;9.738;2022-07-06T02:55:30;5.60;;;1.40;;
7605;SDS011;3844;53.360;9.738;2022-07-06T02:57:56;4.70;;;1.50;;
7605;SDS011;3844;53.360;9.738;2022-07-06T03:00:22;4.80;;;1.40;;
7605;SDS011;3844;53.360;9.738;2022-07-06T03:02:48;7.80;;;1.80;;
7605;SDS011;3844;53.360;9.738;2022-07-06T03:05:13;5.75;;;1.60;;
7605;SDS011;3844;53.360;9.738;2022-07-06T03:07:39;9.13;;;1.88;;
7605;SDS011;3844;53.360;9.738;2022-07-06T03:10:05;5.47;;;1.75;;
7605;SDS011;3844;53.360;9.738;2022-07-06T03:12:31;7.65;;;1.70;;
7605;SDS011;3844;53.360;9.738;2022-07-06T03:14:57;6.38;;;1.88;;
7605;SDS011;3844;53.360;9.738;2022-07-06T03:17:23;7.40;;;1.70;;
7605;SDS011;3844;53.360;9.738;2022-07-06T03:19:49;7.43;;;1.70;;
7605;SDS011;3844;53.360;9.738;2022-07-06T03:22:15;5.80;;;1.70;;
7605;SDS011;3844;53.360;9.738;2022-07-06T03:24:41;3.83;;;1.40;;
7605;SDS011;3844;53.360;9.738;2022-07-06T03:27:06;6.45;;;1.95;;
7605;SDS011;3844;53.360;9.738;2022-07-06T03:29:32;5.75;;;1.60;;
7605;SDS011;3844;53.360;9.738;2022-07-06T03:31:58;5.18;;;1.60;;
7605;SDS011;3844;53.360;9.738;2022-07-06T03:34:24;8.25;;;1.80;;
7605;SDS011;3844;53.360;9.738;2022-07-06T03:36:50;4.20;;;1.58;;
7605;SDS011;3844;53.360;9.738;2022-07-06T03:39:15;7.15;;;1.77;;
7605;SDS011;3844;53.360;9.738;2022-07-06T03:41:41;5.47;;;1.70;;
7605;SDS011;3844;53.360;9.738;2022-07-06T03:44:07;4.53;;;1.30;;
7605;SDS011;3844;53.360;9.738;2022-07-06T03:46:32;8.98;;;1.80;;
7605;SDS011;3844;53.360;9.738;2022-07-06T03:48:58;6.38;;;1.70;;
7605;SDS011;3844;53.360;9.738;2022-07-06T03:51:24;8.18;;;1.65;;
7605;SDS011;3844;53.360;9.738;2022-07-06T03:53:49;5.72;;;1.60;;
7605;SDS011;3844;53.360;9.738;2022-07-06T03:56:15;6.60;;;1.60;;
7605;SDS011;3844;53.360;9.738;2022-07-06T03:58:53;7.43;;;1.70;;
7605;SDS011;3844;53.360;9.738;2022-07-06T04:01:20;5.50;;;1.60;;
7605;SDS011;3844;53.360;9.738;2022-07-06T04:03:46;4.53;;;1.42;;
7605;SDS011;3844;53.360;9.738;2022-07-06T04:06:11;5.45;;;1.50;;
7605;SDS011;3844;53.360;9.738;2022-07-06T04:08:37;5.93;;;1.40;;
7605;SDS011;3844;53.360;9.738;2022-07-06T04:11:03;6.25;;;1.48;;
7605;SDS011;3844;53.360;9.738;2022-07-06T04:13:29;7.15;;;1.75;;
7605;SDS011;3844;53.360;9.738;2022-07-06T04:15:54;5.97;;;1.52;;
7605;SDS011;3844;53.360;9.738;2022-07-06T04:18:20;6.88;;;2.20;;
7605;SDS011;3844;53.360;9.738;2022-07-06T04:20:46;6.00;;;1.60;;
7605;SDS011;3844;53.360;9.738;2022-07-06T04:23:12;5.82;;;1.60;;
7605;SDS011;3844;53.360;9.738;2022-07-06T04:25:37;5.25;;;1.70;;
7605;SDS011;3844;53.360;9.738;2022-07-06T04:28:03;5.95;;;1.50;;
7605;SDS011;3844;53.360;9.738;2022-07-06T04:30:29;4.90;;;1.60;;
7605;SDS011;3844;53.360;9.738;2022-07-06T04:32:55;6.68;;;1.60;;
7605;SDS011;3844;53.360;9.738;2022-07-06T04:35:21;5.70;;;1.42;;
7605;SDS011;3844;53.360;9.738;2022-07-06T04:37:47;7.13;;;1.48;;
7605;SDS011;3844;53.360;9.738;2022-07-06T04:40:13;6.15;;;1.42;;
7605;SDS011;3844;53.360;9.738;2022-07-06T04:42:39;6.40;;;1.50;;
7605;SDS011;3844;53.360;9.738;2022-07-06T04:45:05;4.72;;;1.27;;
7605;SDS011;3844;53.360;9.738;2022-07-06T04:47:32;4.05;;;1.20;;
7605;SDS011;3844;53.360;9.738;2022-07-06T04:49:57;6.05;;;1.52;;
7605;SDS011;3844;53.360;9.738;2022-07-06T04:52:23;5.40;;;1.35;;
7605;SDS011;3844;53.360;9.738;2022-07-06T04:54:49;7.47;;;1.70;;
7605;SDS011;3844;53.360;9.738;2022-07-06T04:57:15;6.88;;;1.50;;
7605;SDS011;3844;53.360;9.738;2022-07-06T04:59:40;5.32;;;1.45;;
7605;SDS011;3844;53.360;9.738;2022-07-06T05:02:06;7.78;;;1.30;;
7605;SDS011;3844;53.360;9.738;2022-07-06T05:04:32;5.38;;;1.35;;
7605;SDS011;3844;53.360;9.738;2022-07-06T05:06:58;5.05;;;1.27;;
7605;SDS011;3844;53.360;9.738;2022-07-06T05:09:24;5.32;;;1.20;;
7605;SDS011;3844;53.360;9.738;2022-07-06T05:11:50;3.42;;;0.90;;
7605;SDS011;3844;53.360;9.738;2022-07-06T05:14:16;4.43;;;0.90;;
7605;SDS011;3844;53.360;9.738;2022-07-06T05:16:41;5.15;;;0.90;;
7605;SDS011;3844;53.360;9.738;2022-07-06T05:19:07;5.45;;;1.10;;
7605;SDS011;3844;53.360;9.738;2022-07-06T05:21:33;3.30;;;0.80;;
7605;SDS011;3844;53.360;9.738;2022-07-06T05:23:58;5.95;;;1.13;;
7605;SDS011;3844;53.360;9.738;2022-07-06T05:26:24;4.00;;;0.77;;
7605;SDS011;3844;53.360;9.738;2022-07-06T05:28:50;3.72;;;0.90;;
7605;SDS011;3844;53.360;9.738;2022-07-06T05:31:16;2.88;;;0.70;;
7605;SDS011;3844;53.360;9.738;2022-07-06T05:33:41;3.08;;;0.75;;
7605;SDS011;3844;53.360;9.738;2022-07-06T05:36:07;3.00;;;0.73;;
7605;SDS011;3844;53.360;9.738;2022-07-06T05:38:33;2.95;;;0.57;;
7605;SDS011;3844;53.360;9.738;2022-07-06T05:40:59;5.30;;;0.80;;
7605;SDS011;3844;53.360;9.738;2022-07-06T05:43:24;2.03;;;0.40;;
7605;SDS011;3844;53.360;9.738;2022-07-06T05:45:50;4.00;;;0.70;;
7605;SDS011;3844;53.360;9.738;2022-07-06T05:48:16;2.88;;;0.80;;
7605;SDS011;3844;53.360;9.738;2022-07-06T05:51:00;3.60;;;0.70;;
7605;SDS011;3844;53.360;9.738;2022-07-06T05:53:26;2.67;;;0.70;;
7605;SDS011;3844;53.360;9.738;2022-07-06T05:55:52;2.53;;;0.70;;
7605;SDS011;3844;53.360;9.738;2022-07-06T05:58:18;3.15;;;0.80;;
7605;SDS011;3844;53.360;9.738;2022-07-06T06:00:44;3.88;;;0.90;;
7605;SDS011;3844;53.360;9.738;2022-07-06T06:03:10;3.70;;;0.80;;
7605;SDS011;3844;53.360;9.738;2022-07-06T06:05:36;3.17;;;0.90;;
7605;SDS011;3844;53.360;9.738;2022-07-06T06:08:01;4.28;;;0.70;;
7605;SDS011;3844;53.360;9.738;2022-07-06T06:10:27;5.63;;;1.00;;
7605;SDS011;3844;53.360;9.738;2022-07-06T06:12:53;5.75;;;0.90;;
7605;SDS011;3844;53.360;9.738;2022-07-06T06:15:19;6.10;;;1.00;;
7605;SDS011;3844;53.360;9.738;2022-07-06T06:17:45;6.63;;;1.30;;
7605;SDS011;3844;53.360;9.738;2022-07-06T06:20:12;4.22;;;1.08;;
7605;SDS011;3844;53.360;9.738;2022-07-06T06:25:17;7.55;;;1.05;;
7605;SDS011;3844;53.360;9.738;2022-07-06T06:27:45;6.97;;;1.15;;
7605;SDS011;3844;53.360;9.738;2022-07-06T06:30:11;4.32;;;0.95;;
7605;SDS011;3844;53.360;9.738;2022-07-06T06:32:38;5.00;;;1.10;;
7605;SDS011;3844;53.360;9.738;2022-07-06T06:35:04;5.60;;;1.10;;
7605;SDS011;3844;53.360;9.738;2022-07-06T06:37:31;5.35;;;1.10;;
7605;SDS011;3844;53.360;9.738;2022-07-06T06:39:57;8.48;;;1.25;;
7605;SDS011;3844;53.360;9.738;2022-07-06T06:42:23;4.13;;;1.00;;
7605;SDS011;3844;53.360;9.738;2022-07-06T06:44:49;4.88;;;1.10;;
7605;SDS011;3844;53.360;9.738;2022-07-06T06:47:14;5.07;;;1.10;;
7605;SDS011;3844;53.360;9.738;2022-07-06T06:49:40;4.55;;;1.00;;
7605;SDS011;3844;53.360;9.738;2022-07-06T06:52:06;4.90;;;0.90;;
7605;SDS011;3844;53.360;9.738;2022-07-06T06:54:31;4.93;;;0.85;;
7605;SDS011;3844;53.360;9.738;2022-07-06T06:56:57;3.95;;;0.95;;
7605;SDS011;3844;53.360;9.738;2022-07-06T06:59:23;5.80;;;1.00;;
7605;SDS011;3844;53.360;9.738;2022-07-06T07:01:49;5.72;;;1.00;;
7605;SDS011;3844;53.360;9.738;2022-07-06T07:04:14;5.20;;;1.10;;
7605;SDS011;3844;53.360;9.738;2022-07-06T07:06:40;7.32;;;1.10;;
7605;SDS011;3844;53.360;9.738;2022-07-06T07:09:06;4.25;;;0.90;;
7605;SDS011;3844;53.360;9.738;2022-07-06T07:11:32;4.88;;;1.00;;
7605;SDS011;3844;53.360;9.738;2022-07-06T07:13:58;6.50;;;1.00;;
7605;SDS011;3844;53.360;9.738;2022-07-06T07:16:25;3.97;;;0.77;;
7605;SDS011;3844;53.360;9.738;2022-07-06T07:18:51;6.20;;;0.93;;
7605;SDS011;3844;53.360;9.738;2022-07-06T07:21:17;5.60;;;1.00;;
7605;SDS011;3844;53.360;9.738;2022-07-06T07:23:43;4.00;;;0.80;;
7605;SDS011;3844;53.360;9.738;2022-07-06T07:26:09;5.93;;;0.80;;
7605;SDS011;3844;53.360;9.738;2022-07-06T07:28:35;5.53;;;0.82;;
7605;SDS011;3844;53.360;9.738;2022-07-06T07:31:00;5.85;;;0.90;;
7605;SDS011;3844;53.360;9.738;2022-07-06T07:33:26;4.18;;;0.98;;
7605;SDS011;3844;53.360;9.738;2022-07-06T07:35:52;3.00;;;0.70;;
7605;SDS011;3844;53.360;9.738;2022-07-06T07:38:18;5.68;;;0.95;;
7605;SDS011;3844;53.360;9.738;2022-07-06T07:40:44;4.15;;;0.80;;
7605;SDS011;3844;53.360;9.738;2022-07-06T07:43:10;6.05;;;0.80;;
7605;SDS011;3844;53.360;9.738;2022-07-06T07:45:35;4.38;;;0.80;;
7605;SDS011;3844;53.360;9.738;2022-07-06T07:48:02;4.68;;;0.93;;
7605;SDS011;3844;53.360;9.738;2022-07-06T07:50:28;4.95;;;0.90;;
7605;SDS011;3844;53.360;9.738;2022-07-06T07:52:55;5.18;;;0.90;;
7605;SDS011;3844;53.360;9.738;2022-07-06T07:55:21;4.68;;;0.80;;
7605;SDS011;3844;53.360;9.738;2022-07-06T07:57:47;6.45;;;0.95;;
7605;SDS011;3844;53.360;9.738;2022-07-06T08:00:13;4.68;;;0.90;;
7605;SDS011;3844;53.360;9.738;2022-07-06T08:02:39;3.20;;;0.60;;
7605;SDS011;3844;53.360;9.738;2022-07-06T08:05:05;6.63;;;0.80;;
7605;SDS011;3844;53.360;9.738;2022-07-06T08:07:32;3.13;;;0.68;;
7605;SDS011;3844;53.360;9.738;2022-07-06T08:09:57;3.88;;;0.73;;
7605;SDS011;3844;53.360;9.738;2022-07-06T08:12:23;3.47;;;0.70;;
7605;SDS011;3844;53.360;9.738;2022-07-06T08:14:49;3.08;;;0.70;;
7605;SDS011;3844;53.360;9.738;2022-07-06T08:17:15;2.47;;;0.50;;
7605;SDS011;3844;53.360;9.738;2022-07-06T08:19:41;2.55;;;0.50;;
7605;SDS011;3844;53.360;9.738;2022-07-06T08:22:06;2.30;;;0.50;;
7605;SDS011;3844;53.360;9.738;2022-07-06T08:24:36;2.50;;;0.50;;
7605;SDS011;3844;53.360;9.738;2022-07-06T08:27:02;2.08;;;0.38;;
7605;SDS011;3844;53.360;9.738;2022-07-06T08:29:28;3.58;;;0.40;;
7605;SDS011;3844;53.360;9.738;2022-07-06T08:31:55;2.85;;;0.40;;
7605;SDS011;3844;53.360;9.738;2022-07-06T08:34:21;1.65;;;0.40;;
7605;SDS011;3844;53.360;9.738;2022-07-06T08:36:47;3.25;;;0.40;;
7605;SDS011;3844;53.360;9.738;2022-07-06T08:39:13;2.15;;;0.40;;
7605;SDS011;3844;53.360;9.738;2022-07-06T08:41:40;2.17;;;0.40;;
7605;SDS011;3844;53.360;9.738;2022-07-06T08:44:08;3.40;;;0.57;;
7605;SDS011;3844;53.360;9.738;2022-07-06T08:46:35;2.85;;;0.50;;
7605;SDS011;3844;53.360;9.738;2022-07-06T08:49:03;3.63;;;0.57;;
7605;SDS011;3844;53.360;9.738;2022-07-06T08:51:31;3.63;;;0.60;;
7605;SDS011;3844;53.360;9.738;2022-07-06T08:53:57;3.58;;;0.60;;
7605;SDS011;3844;53.360;9.738;2022-07-06T08:56:24;5.03;;;0.60;;
7605;SDS011;3844;53.360;9.738;2022-07-06T08:58:53;4.63;;;0.77;;
7605;SDS011;3844;53.360;9.738;2022-07-06T09:01:19;4.43;;;0.70;;
7605;SDS011;3844;53.360;9.738;2022-07-06T09:03:46;3.65;;;0.70;;
7605;SDS011;3844;53.360;9.738;2022-07-06T09:06:14;5.40;;;0.70;;
7605;SDS011;3844;53.360;9.738;2022-07-06T09:08:43;3.90;;;0.65;;
7605;SDS011;3844;53.360;9.738;2022-07-06T09:11:10;4.32;;;0.80;;
7605;SDS011;3844;53.360;9.738;2022-07-06T09:13:35;3.95;;;0.70;;
7605;SDS011;3844;53.360;9.738;2022-07-06T09:16:14;4.00;;;0.80;;
7605;SDS011;3844;53.360;9.738;2022-07-06T09:18:44;4.70;;;0.65;;
7605;SDS011;3844;53.360;9.738;2022-07-06T09:21:10;3.78;;;0.70;;
7605;SDS011;3844;53.360;9.738;2022-07-06T09:23:37;3.15;;;0.70;;
7605;SDS011;3844;53.360;9.738;2022-07-06T09:26:06;5.00;;;0.80;;
7605;SDS011;3844;53.360;9.738;2022-07-06T09:28:44;6.32;;;0.90;;
7605;SDS011;3844;53.360;9.738;2022-07-06T09:31:10;5.18;;;0.70;;
7605;SDS011;3844;53.360;9.738;2022-07-06T09:33:37;5.18;;;0.70;;
7605;SDS011;3844;53.360;9.738;2022-07-06T09:36:03;2.80;;;0.63;;
7605;SDS011;3844;53.360;9.738;2022-07-06T09:38:31;3.97;;;0.70;;
7605;SDS011;3844;53.360;9.738;2022-07-06T09:40:57;4.53;;;0.85;;
7605;SDS011;3844;53.360;9.738;2022-07-06T09:43:23;4.97;;;0.70;;
7605;SDS011;3844;53.360;9.738;2022-07-06T09:48:18;3.20;;;0.55;;
7605;SDS011;3844;53.360;9.738;2022-07-06T09:50:52;3.65;;;0.55;;
7605;SDS011;3844;53.360;9.738;2022-07-06T09:53:18;5.38;;;0.82;;
7605;SDS011;3844;53.360;9.738;2022-07-06T09:55:46;3.92;;;0.60;;
7605;SDS011;3844;53.360;9.738;2022-07-06T09:58:14;1.63;;;0.50;;
7605;SDS011;3844;53.360;9.738;2022-07-06T10:00:40;1.60;;;0.47;;
7605;SDS011;3844;53.360;9.738;2022-07-06T10:03:10;2.88;;;0.70;;
7605;SDS011;3844;53.360;9.738;2022-07-06T10:05:37;3.33;;;0.50;;
7605;SDS011;3844;53.360;9.738;2022-07-06T10:08:05;3.35;;;0.60;;
7605;SDS011;3844;53.360;9.738;2022-07-06T10:10:34;7.57;;;0.70;;
7605;SDS011;3844;53.360;9.738;2022-07-06T10:13:01;3.78;;;0.77;;
7605;SDS011;3844;53.360;9.738;2022-07-06T10:15:29;4.47;;;0.70;;
7605;SDS011;3844;53.360;9.738;2022-07-06T10:17:58;2.58;;;0.70;;
7605;SDS011;3844;53.360;9.738;2022-07-06T10:20:27;5.40;;;0.80;;
7605;SDS011;3844;53.360;9.738;2022-07-06T10:22:57;4.70;;;0.70;;
7605;SDS011;3844;53.360;9.738;2022-07-06T10:25:25;4.25;;;0.80;;
7605;SDS011;3844;53.360;9.738;2022-07-06T10:27:52;3.78;;;0.70;;
7605;SDS011;3844;53.360;9.738;2022-07-06T10:30:19;2.35;;;0.50;;
7605;SDS011;3844;53.360;9.738;2022-07-06T10:32:47;2.55;;;0.60;;
7605;SDS011;3844;53.360;9.738;2022-07-06T10:35:15;3.00;;;0.65;;
7605;SDS011;3844;53.360;9.738;2022-07-06T10:37:43;3.85;;;0.70;;
7605;SDS011;3844;53.360;9.738;2022-07-06T10:40:10;3.25;;;0.50;;
7605;SDS011;3844;53.360;9.738;2022-07-06T10:50:36;2.92;;;0.60;;
7605;SDS011;3844;53.360;9.738;2022-07-06T10:53:21;3.40;;;0.60;;
7605;SDS011;3844;53.360;9.738;2022-07-06T10:56:07;4.00;;;0.70;;
7605;SDS011;3844;53.360;9.738;2022-07-06T11:01:08;4.07;;;0.60;;
7605;SDS011;3844;53.360;9.738;2022-07-06T11:06:18;5.07;;;0.65;;
7605;SDS011;3844;53.360;9.738;2022-07-06T11:19:15;4.85;;;0.80;;
7605;SDS011;3844;53.360;9.738;2022-07-06T11:21:55;4.90;;;1.55;;
7605;SDS011;3844;53.360;9.738;2022-07-06T11:24:29;5.30;;;0.80;;
7605;SDS011;3844;53.360;9.738;2022-07-06T11:26:57;3.33;;;0.75;;
7605;SDS011;3844;53.360;9.738;2022-07-06T11:29:24;4.55;;;0.70;;
7605;SDS011;3844;53.360;9.738;2022-07-06T11:31:55;6.82;;;1.50;;
7605;SDS011;3844;53.360;9.738;2022-07-06T11:34:28;5.13;;;0.88;;
7605;SDS011;3844;53.360;9.738;2022-07-06T11:36:56;5.45;;;0.70;;
7605;SDS011;3844;53.360;9.738;2022-07-06T11:39:33;4.28;;;0.60;;
7605;SDS011;3844;53.360;9.738;2022-07-06T11:42:01;4.55;;;0.68;;
7605;SDS011;3844;53.360;9.738;2022-07-06T11:44:29;3.40;;;0.60;;
7605;SDS011;3844;53.360;9.738;2022-07-06T11:46:56;3.00;;;0.60;;
7605;SDS011;3844;53.360;9.738;2022-07-06T11:49:26;2.60;;;0.47;;
7605;SDS011;3844;53.360;9.738;2022-07-06T11:51:51;3.08;;;0.52;;
7605;SDS011;3844;53.360;9.738;2022-07-06T11:54:18;4.15;;;0.60;;
7605;SDS011;3844;53.360;9.738;2022-07-06T11:56:49;3.80;;;0.73;;
7605;SDS011;3844;53.360;9.738;2022-07-06T11:59:41;4.93;;;0.70;;
7605;SDS011;3844;53.360;9.738;2022-07-06T12:02:11;5.40;;;0.70;;
7605;SDS011;3844;53.360;9.738;2022-07-06T12:04:41;3.92;;;0.80;;
7605;SDS011;3844;53.360;9.738;2022-07-06T12:07:09;4.60;;;0.70;;
7605;SDS011;3844;53.360;9.738;2022-07-06T12:09:37;3.90;;;0.60;;
7605;SDS011;3844;53.360;9.738;2022-07-06T12:12:05;4.03;;;0.68;;
7605;SDS011;3844;53.360;9.738;2022-07-06T12:14:32;3.80;;;0.52;;
7605;SDS011;3844;53.360;9.738;2022-07-06T12:17:05;3.35;;;0.55;;
7605;SDS011;3844;53.360;9.738;2022-07-06T12:19:33;2.60;;;0.40;;
7605;SDS011;3844;53.360;9.738;2022-07-06T12:21:59;3.03;;;0.40;;
7605;SDS011;3844;53.360;9.738;2022-07-06T12:24:29;2.95;;;0.60;;
7605;SDS011;3844;53.360;9.738;2022-07-06T12:26:56;3.65;;;0.70;;
7605;SDS011;3844;53.360;9.738;2022-07-06T12:29:23;3.03;;;0.52;;
7605;SDS011;3844;53.360;9.738;2022-07-06T12:31:53;4.75;;;0.60;;
7605;SDS011;3844;53.360;9.738;2022-07-06T12:34:24;3.60;;;0.50;;
7605;SDS011;3844;53.360;9.738;2022-07-06T12:36:52;2.70;;;0.50;;
7605;SDS011;3844;53.360;9.738;2022-07-06T12:39:26;5.95;;;0.65;;
7605;SDS011;3844;53.360;9.738;2022-07-06T12:42:01;5.05;;;0.63;;
7605;SDS011;3844;53.360;9.738;2022-07-06T12:44:28;4.25;;;0.60;;
7605;SDS011;3844;53.360;9.738;2022-07-06T12:47:08;3.83;;;0.50;;
7605;SDS011;3844;53.360;9.738;2022-07-06T12:49:37;3.38;;;0.50;;
7605;SDS011;3844;53.360;9.738;2022-07-06T12:54:36;3.75;;;0.60;;
7605;SDS011;3844;53.360;9.738;2022-07-06T13:02:20;4.07;;;0.50;;
7605;SDS011;3844;53.360;9.738;2022-07-06T13:05:03;3.38;;;0.57;;
7605;SDS011;3844;53.360;9.738;2022-07-06T13:07:35;2.92;;;0.55;;
7605;SDS011;3844;53.360;9.738;2022-07-06T13:10:05;2.42;;;0.40;;
7605;SDS011;3844;53.360;9.738;2022-07-06T13:12:33;2.78;;;0.47;;
7605;SDS011;3844;53.360;9.738;2022-07-06T13:14:59;3.42;;;0.50;;
7605;SDS011;3844;53.360;9.738;2022-07-06T13:17:25;6.10;;;0.60;;
7605;SDS011;3844;53.360;9.738;2022-07-06T13:19:51;2.50;;;0.40;;
7605;SDS011;3844;53.360;9.738;2022-07-06T13:22:17;2.92;;;0.50;;
7605;SDS011;3844;53.360;9.738;2022-07-06T13:24:43;3.42;;;0.60;;
7605;SDS011;3844;53.360;9.738;2022-07-06T13:27:10;2.25;;;0.40;;
7605;SDS011;3844;53.360;9.738;2022-07-06T13:29:36;3.17;;;0.50;;
7605;SDS011;3844;53.360;9.738;2022-07-06T13:32:03;2.90;;;0.50;;
7605;SDS011;3844;53.360;9.738;2022-07-06T13:34:30;2.40;;;0.40;;
7605;SDS011;3844;53.360;9.738;2022-07-06T13:36:56;2.08;;;0.40;;
7605;SDS011;3844;53.360;9.738;2022-07-06T13:39:21;4.40;;;0.50;;
7605;SDS011;3844;53.360;9.738;2022-07-06T13:41:48;2.38;;;0.45;;
7605;SDS011;3844;53.360;9.738;2022-07-06T13:44:14;3.28;;;0.50;;
7605;SDS011;3844;53.360;9.738;2022-07-06T13:46:40;2.90;;;0.50;;
7605;SDS011;3844;53.360;9.738;2022-07-06T13:49:07;3.95;;;0.50;;
7605;SDS011;3844;53.360;9.738;2022-07-06T13:51:34;2.95;;;0.60;;
7605;SDS011;3844;53.360;9.738;2022-07-06T13:54:02;3.35;;;0.60;;
7605;SDS011;3844;53.360;9.738;2022-07-06T13:56:48;2.22;;;0.43;;
7605;SDS011;3844;53.360;9.738;2022-07-06T13:59:14;4.57;;;0.63;;
7605;SDS011;3844;53.360;9.738;2022-07-06T14:01:40;1.65;;;0.40;;
7605;SDS011;3844;53.360;9.738;2022-07-06T14:04:06;4.15;;;0.60;;
7605;SDS011;3844;53.360;9.738;2022-07-06T14:06:31;3.30;;;0.52;;
7605;SDS011;3844;53.360;9.738;2022-07-06T14:08:58;3.00;;;0.60;;
7605;SDS011;3844;53.360;9.738;2022-07-06T14:11:23;3.38;;;0.70;;
7605;SDS011;3844;53.360;9.738;2022-07-06T14:13:49;4.30;;;0.68;;
7605;SDS011;3844;53.360;9.738;2022-07-06T14:16:15;2.58;;;0.50;;
7605;SDS011;3844;53.360;9.738;2022-07-06T14:18:41;3.78;;;0.65;;
7605;SDS011;3844;53.360;9.738;2022-07-06T14:21:08;3.55;;;0.50;;
7605;SDS011;3844;53.360;9.738;2022-07-06T14:23:34;4.22;;;0.50;;
7605;SDS011;3844;53.360;9.738;2022-07-06T14:26:00;3.60;;;0.50;;
7605;SDS011;3844;53.360;9.738;2022-07-06T14:28:25;3.75;;;0.55;;
7605;SDS011;3844;53.360;9.738;2022-07-06T14:30:51;2.95;;;0.50;;
7605;SDS011;3844;53.360;9.738;2022-07-06T14:33:17;5.55;;;0.55;;
7605;SDS011;3844;53.360;9.738;2022-07-06T14:35:47;2.70;;;0.45;;
7605;SDS011;3844;53.360;9.738;2022-07-06T14:38:14;5.78;;;0.68;;
7605;SDS011;3844;53.360;9.738;2022-07-06T14:40:41;4.13;;;0.60;;
7605;SDS011;3844;53.360;9.738;2022-07-06T14:43:07;2.83;;;0.50;;
7605;SDS011;3844;53.360;9.738;2022-07-06T14:45:33;2.15;;;0.35;;
7605;SDS011;3844;53.360;9.738;2022-07-06T14:47:59;4.78;;;0.65;;
7605;SDS011;3844;53.360;9.738;2022-07-06T14:50:25;3.10;;;0.55;;
7605;SDS011;3844;53.360;9.738;2022-07-06T14:52:54;2.58;;;0.43;;
7605;SDS011;3844;53.360;9.738;2022-07-06T14:55:20;2.70;;;0.50;;
7605;SDS011;3844;53.360;9.738;2022-07-06T14:57:47;3.35;;;0.52;;
7605;SDS011;3844;53.360;9.738;2022-07-06T15:00:13;2.95;;;0.50;;
7605;SDS011;3844;53.360;9.738;2022-07-06T15:02:40;2.20;;;0.50;;
7605;SDS011;3844;53.360;9.738;2022-07-06T15:05:06;3.60;;;0.47;;
7605;SDS011;3844;53.360;9.738;2022-07-06T15:07:32;4.00;;;0.52;;
7605;SDS011;3844;53.360;9.738;2022-07-06T15:10:01;4.10;;;0.80;;
7605;SDS011;3844;53.360;9.738;2022-07-06T15:12:34;5.10;;;0.50;;
7605;SDS011;3844;53.360;9.738;2022-07-06T15:15:00;3.97;;;0.60;;
7605;SDS011;3844;53.360;9.738;2022-07-06T15:17:26;3.92;;;0.70;;
7605;SDS011;3844;53.360;9.738;2022-07-06T15:19:53;3.90;;;0.50;;
7605;SDS011;3844;53.360;9.738;2022-07-06T15:22:19;3.65;;;0.50;;
7605;SDS011;3844;53.360;9.738;2022-07-06T15:24:46;3.30;;;0.60;;
7605;SDS011;3844;53.360;9.738;2022-07-06T15:27:12;3.58;;;0.57;;
7605;SDS011;3844;53.360;9.738;2022-07-06T15:29:38;5.47;;;0.70;;
7605;SDS011;3844;53.360;9.738;2022-07-06T15:32:04;3.13;;;0.60;;
7605;SDS011;3844;53.360;9.738;2022-07-06T15:34:30;3.20;;;0.55;;
7605;SDS011;3844;53.360;9.738;2022-07-06T15:36:56;4.63;;;0.50;;
7605;SDS011;3844;53.360;9.738;2022-07-06T15:39:22;3.40;;;0.60;;
7605;SDS011;3844;53.360;9.738;2022-07-06T15:41:48;3.40;;;0.47;;
7605;SDS011;3844;53.360;9.738;2022-07-06T15:44:14;3.90;;;0.73;;
7605;SDS011;3844;53.360;9.738;2022-07-06T15:46:39;3.78;;;0.45;;
7605;SDS011;3844;53.360;9.738;2022-07-06T15:49:05;5.68;;;0.70;;
7605;SDS011;3844;53.360;9.738;2022-07-06T15:51:31;2.70;;;0.50;;